Time;durP1;ratioP1;P1;durP2;ratioP2;P2;SDS_P1;SDS_P2;PMS_P1;PMS_P2;Temp;Humidity;BMP_temperature;BMP_pressure;BME280_temperature;BME280_humidity;BME280_pressure;Samples;Min_cycle;Max_cycle;Signal;HPM_P1;HPM_P2
2021/08/17 00:08:54;;;;;;;1.50;1.15;;;25.40;99.90;;;;;;20604471;28;20223;-83
2021/08/17 00:18:57;;;;;;;0.60;0.60;;;25.20;99.90;;;;;;20609712;28;20195;-84
2021/08/17 00:29:02;;;;;;;2.10;1.55;;;25.30;99.90;;;;;;20620675;28;20607;-86
2021/08/17 00:39:08;;;;;;;2.03;1.63;;;25.30;99.90;;;;;;20557809;28;20678;-83
2021/08/17 00:49:13;;;;;;;1.02;0.70;;;25.30;99.90;;;;;;20462973;28;20240;-89
2021/08/17 00:59:19;;;;;;;0.70;0.65;;;25.40;99.90;;;;;;20475612;28;20214;-81
2021/08/17 01:09:24;;;;;;;0.52;0.45;;;25.40;99.90;;;;;;20535289;28;20673;-84
2021/08/17 01:19:28;;;;;;;1.25;0.60;;;25.40;99.90;;;;;;20534791;28;20640;-83
2021/08/17 01:29:34;;;;;;;2.03;1.02;;;25.50;99.90;;;;;;20534064;28;20216;-85
2021/08/17 01:39:37;;;;;;;6.40;0.82;;;25.50;99.90;;;;;;20539120;28;20239;-86
2021/08/17 01:49:44;;;;;;;1.33;0.82;;;25.30;99.90;;;;;;20546889;28;20623;-87
2021/08/17 01:59:48;;;;;;;2.10;0.95;;;25.10;99.90;;;;;;20557880;28;20200;-82
2021/08/17 02:09:55;;;;;;;0.70;0.60;;;25.00;99.90;;;;;;20546273;28;20227;-89
2021/08/17 02:19:59;;;;;;;0.82;0.63;;;25.10;99.90;;;;;;20621391;28;20209;-87
2021/08/17 02:30:05;;;;;;;8.35;0.75;;;25.00;99.90;;;;;;20641698;28;20208;-90
2021/08/17 02:40:10;;;;;;;2.38;0.95;;;25.00;99.90;;;;;;20590618;28;20762;-87
2021/08/17 02:50:15;;;;;;;0.77;0.77;;;24.50;99.90;;;;;;20546672;28;20223;-83
2021/08/17 03:00:20;;;;;;;0.73;0.70;;;24.50;99.90;;;;;;20549679;28;20275;-88
2021/08/17 03:10:25;;;;;;;0.63;0.30;;;23.80;99.90;;;;;;20562315;28;20231;-88
2021/08/17 03:20:30;;;;;;;0.83;0.83;;;23.60;99.90;;;;;;20573021;28;20279;-84
2021/08/17 03:30:39;;;;;;;1.35;1.15;;;23.30;99.90;;;;;;20526640;28;20224;-84
2021/08/17 03:51:23;;;;;;;0.50;0.40;;;23.20;99.90;;;;;;20357428;29;20233;-85
2021/08/17 04:01:27;;;;;;;0.67;0.40;;;23.20;99.90;;;;;;20351441;29;20197;-82
2021/08/17 04:11:32;;;;;;;0.87;0.77;;;23.10;99.90;;;;;;20369323;29;20311;-85
2021/08/17 04:21:36;;;;;;;0.22;0.13;;;22.90;99.90;;;;;;20404340;28;20208;-82
2021/08/17 04:31:41;;;;;;;0.67;0.47;;;22.90;99.90;;;;;;20536023;28;20370;-79
2021/08/17 04:41:45;;;;;;;0.70;0.60;;;23.00;99.90;;;;;;20537562;28;21175;-83
2021/08/17 04:51:50;;;;;;;0.47;0.32;;;23.10;99.90;;;;;;20534774;28;20230;-83
2021/08/17 05:01:53;;;;;;;0.70;0.60;;;23.20;99.90;;;;;;20540072;28;20184;-83
2021/08/17 05:11:59;;;;;;;3.83;0.53;;;23.10;99.90;;;;;;20540133;28;20228;-82
2021/08/17 05:22:03;;;;;;;0.60;0.53;;;22.80;99.90;;;;;;20538232;28;20625;-86
2021/08/17 05:32:08;;;;;;;0.93;0.60;;;22.60;99.90;;;;;;20553144;28;20314;-80
2021/08/17 05:42:13;;;;;;;38.57;4.40;;;22.80;99.90;;;;;;20551760;28;20232;-84
2021/08/17 05:52:23;;;;;;;1.03;0.77;;;23.00;99.90;;;;;;20534145;28;20511;-80
2021/08/17 06:02:35;;;;;;;0.23;0.17;;;22.80;99.90;;;;;;20547253;28;20547;-85
2021/08/17 06:12:41;;;;;;;0.40;0.40;;;22.70;99.90;;;;;;20547725;28;20248;-78
2021/08/17 06:22:44;;;;;;;0.70;0.55;;;22.80;99.90;;;;;;20546628;28;20197;-81
2021/08/17 06:32:50;;;;;;;0.75;0.50;;;23.00;99.90;;;;;;20550646;28;20274;-87
2021/08/17 06:42:53;;;;;;;0.80;0.53;;;23.20;99.90;;;;;;20545849;28;20620;-83
2021/08/17 06:53:03;;;;;;;8.15;3.67;;;23.10;99.90;;;;;;20547656;28;20329;-81
2021/08/17 07:03:07;;;;;;;1.23;1.13;;;23.20;99.90;;;;;;20551239;28;21039;-87
2021/08/17 07:13:14;;;;;;;0.53;0.43;;;23.50;99.90;;;;;;20549734;28;20322;-82
2021/08/17 07:23:18;;;;;;;0.30;0.10;;;23.40;99.90;;;;;;20545572;28;20203;-82
2021/08/17 07:33:26;;;;;;;1.55;0.45;;;23.80;99.90;;;;;;20538518;28;20224;-80
2021/08/17 07:43:30;;;;;;;1.45;0.60;;;24.20;99.90;;;;;;20542114;28;20433;-82
2021/08/17 07:53:36;;;;;;;0.75;0.47;;;24.90;99.90;;;;;;20535429;28;20570;-80
2021/08/17 08:03:48;;;;;;;0.90;0.85;;;24.90;99.90;;;;;;20534333;28;20227;-80
2021/08/17 08:13:53;;;;;;;0.35;0.20;;;25.30;99.90;;;;;;20457722;28;20419;-82
2021/08/17 08:24:03;;;;;;;0.77;0.57;;;25.90;99.90;;;;;;20459798;28;20201;-82
2021/08/17 08:34:08;;;;;;;0.32;0.32;;;26.10;99.90;;;;;;20461542;28;20319;-85
2021/08/17 08:44:22;;;;;;;0.55;0.15;;;26.00;99.90;;;;;;20453161;28;20236;-78
2021/08/17 08:54:28;;;;;;;5.47;1.13;;;26.00;99.90;;;;;;20452696;28;20224;-76
2021/08/17 09:04:32;;;;;;;0.43;0.40;;;26.20;99.90;;;;;;20525376;28;20533;-79
2021/08/17 09:14:37;;;;;;;2.65;0.52;;;25.90;99.90;;;;;;20544176;28;20216;-79
2021/08/17 09:24:41;;;;;;;0.47;0.47;;;26.70;99.90;;;;;;20542738;28;20658;-82
2021/08/17 09:34:54;;;;;;;0.30;0.20;;;26.50;99.90;;;;;;20525557;28;20217;-81
2021/08/17 09:45:14;;;;;;;0.20;0.15;;;26.30;99.90;;;;;;20444798;28;20231;-75
2021/08/17 09:55:25;;;;;;;1.08;0.63;;;26.70;99.90;;;;;;20538930;28;20606;-77
2021/08/17 10:05:29;;;;;;;0.82;0.50;;;26.60;99.90;;;;;;20542425;28;20192;-75
2021/08/17 10:15:34;;;;;;;0.98;0.80;;;26.70;99.90;;;;;;20543696;28;20403;-74
2021/08/17 10:25:50;;;;;;;0.50;0.38;;;26.80;99.90;;;;;;20541270;28;20193;-83
2021/08/17 10:36:00;;;;;;;0.77;0.30;;;26.80;99.90;;;;;;20540873;28;20462;-74
2021/08/17 10:46:06;;;;;;;0.28;0.15;;;27.20;99.90;;;;;;20540904;28;20235;-73
2021/08/17 10:56:16;;;;;;;0.45;0.43;;;27.30;99.90;;;;;;20537418;28;20676;-73
2021/08/17 11:06:38;;;;;;;0.40;0.30;;;27.80;99.90;;;;;;20552778;28;20204;-75
2021/08/17 11:16:46;;;;;;;1.23;0.68;;;28.20;99.90;;;;;;20537627;28;20238;-77
2021/08/17 11:26:53;;;;;;;1.60;0.90;;;28.60;99.90;;;;;;20540272;28;20199;-77
2021/08/17 11:37:01;;;;;;;0.93;0.57;;;29.40;99.90;;;;;;20536000;28;20238;-75
2021/08/17 11:47:06;;;;;;;6.72;1.00;;;29.80;99.90;;;;;;20534100;28;20228;-83
2021/08/17 11:57:12;;;;;;;2.38;1.08;;;30.40;99.90;;;;;;20535799;28;20885;-76
2021/08/17 12:07:17;;;;;;;1.65;0.77;;;30.80;99.90;;;;;;20534062;28;20615;-80
2021/08/17 12:17:23;;;;;;;2.13;1.58;;;31.30;99.90;;;;;;20534061;28;20251;-77
2021/08/17 12:27:28;;;;;;;2.50;1.10;;;31.90;99.90;;;;;;20531435;28;20192;-79
2021/08/17 12:37:38;;;;;;;7.35;1.33;;;31.60;99.90;;;;;;20534369;28;20593;-76
2021/08/17 12:47:57;;;;;;;2.03;0.90;;;32.40;99.90;;;;;;20547691;28;20232;-84
2021/08/17 12:58:06;;;;;;;4.18;1.20;;;32.70;99.90;;;;;;20532536;28;20219;-75
2021/08/17 13:08:11;;;;;;;1.25;0.80;;;33.00;99.90;;;;;;20529539;28;20222;-79
2021/08/17 13:18:16;;;;;;;5.47;1.00;;;33.40;99.90;;;;;;20532067;28;20224;-81
2021/08/17 13:28:21;;;;;;;4.30;1.20;;;33.50;99.90;;;;;;20529930;28;20215;-78
2021/08/17 13:38:26;;;;;;;6.60;1.25;;;33.80;99.90;;;;;;20531704;28;20346;-81
2021/08/17 13:48:33;;;;;;;1.25;0.85;;;33.90;99.90;;;;;;20525441;28;20581;-84
2021/08/17 13:58:46;;;;;;;1.17;0.80;;;34.10;99.90;;;;;;20499593;28;20646;-83
2021/08/17 14:08:50;;;;;;;1.63;1.33;;;34.60;99.90;;;;;;20521938;28;20673;-80
2021/08/17 14:18:56;;;;;;;1.92;1.25;;;35.30;99.90;;;;;;20555728;28;21145;-83
2021/08/17 14:29:02;;;;;;;1.02;0.65;;;35.20;99.90;;;;;;20490315;28;20207;-79
2021/08/17 14:39:11;;;;;;;1.45;0.85;;;34.80;99.90;;;;;;20442809;28;20722;-79
2021/08/17 14:49:14;;;;;;;1.73;0.70;;;35.00;99.90;;;;;;20463006;28;20212;-80
2021/08/17 14:59:23;;;;;;;1.40;0.65;;;35.70;99.90;;;;;;20477939;28;20292;-84
2021/08/17 15:09:35;;;;;;;1.40;0.57;;;35.50;99.90;;;;;;20535714;28;20196;-78
2021/08/17 15:19:43;;;;;;;2.17;0.43;;;35.30;99.90;;;;;;20553675;28;20223;-74
2021/08/17 15:29:46;;;;;;;1.23;0.73;;;35.20;99.90;;;;;;20537962;28;20395;-76
2021/08/17 15:39:54;;;;;;;1.05;0.90;;;34.80;99.90;;;;;;20536692;28;20235;-78
2021/08/17 15:49:57;;;;;;;1.05;0.50;;;33.70;99.90;;;;;;20552230;28;20207;-79
2021/08/17 16:00:03;;;;;;;1.08;0.70;;;31.10;99.90;;;;;;20535194;28;20235;-77
2021/08/17 16:10:08;;;;;;;1.92;0.82;;;30.00;99.90;;;;;;20512647;28;20205;-82
2021/08/17 16:20:16;;;;;;;1.63;0.60;;;29.50;99.90;;;;;;20472196;28;20315;-82
2021/08/17 16:30:20;;;;;;;1.45;0.63;;;29.10;99.90;;;;;;20535523;28;20326;-80
2021/08/17 16:40:26;;;;;;;1.15;0.80;;;29.00;99.90;;;;;;20528620;28;20322;-80
2021/08/17 16:50:31;;;;;;;0.65;0.52;;;29.00;99.90;;;;;;20531207;28;20796;-82
2021/08/17 17:00:36;;;;;;;12.55;1.13;;;28.60;99.90;;;;;;20533049;28;20506;-83
2021/08/17 17:10:42;;;;;;;1.17;0.70;;;28.50;99.90;;;;;;20532928;28;20753;-84
2021/08/17 17:20:49;;;;;;;0.95;0.80;;;28.60;99.90;;;;;;20543006;28;20246;-87
2021/08/17 17:30:56;;;;;;;2.78;1.77;;;29.90;99.90;;;;;;20555183;28;20200;-88
2021/08/17 17:41:05;;;;;;;1.08;0.80;;;31.00;99.90;;;;;;20546038;28;20246;-82
2021/08/17 17:51:09;;;;;;;1.75;0.60;;;31.00;99.90;;;;;;20531996;28;20721;-77
2021/08/17 18:01:14;;;;;;;1.52;0.60;;;30.60;99.90;;;;;;20518854;28;20332;-81
2021/08/17 18:11:19;;;;;;;1.48;1.13;;;28.80;99.90;;;;;;20476814;28;20269;-86
2021/08/17 18:21:24;;;;;;;1.13;0.80;;;27.40;99.90;;;;;;20500748;28;20233;-84
2021/08/17 18:31:28;;;;;;;10.77;0.93;;;26.80;99.90;;;;;;20468113;28;20211;-82
2021/08/17 18:41:33;;;;;;;0.88;0.70;;;26.50;99.90;;;;;;20541287;28;20224;-83
2021/08/17 18:51:37;;;;;;;2.65;1.77;;;26.40;99.90;;;;;;20542787;28;20621;-77
2021/08/17 19:01:42;;;;;;;0.38;0.30;;;26.20;99.90;;;;;;20513219;28;20646;-85
2021/08/17 19:11:46;;;;;;;3.95;0.77;;;26.00;99.90;;;;;;20495896;28;20261;-86
2021/08/17 19:21:51;;;;;;;1.48;0.43;;;26.00;99.90;;;;;;20457666;28;20225;-85
2021/08/17 19:31:55;;;;;;;2.83;0.63;;;25.70;99.90;;;;;;20468605;28;20204;-85
2021/08/17 19:42:01;;;;;;;3.10;0.85;;;25.60;99.90;;;;;;20481086;28;20232;-88
2021/08/17 19:52:06;;;;;;;1.70;0.73;;;25.60;99.90;;;;;;20464388;28;20281;-86
2021/08/17 20:02:15;;;;;;;1.88;1.38;;;25.40;99.90;;;;;;20501675;28;20751;-86
2021/08/17 20:12:20;;;;;;;1.40;0.68;;;25.40;99.90;;;;;;20523305;28;20364;-87
2021/08/17 20:22:25;;;;;;;0.68;0.60;;;25.00;99.90;;;;;;20538794;28;20236;-89
2021/08/17 20:32:29;;;;;;;2.35;0.68;;;24.50;99.90;;;;;;20508686;28;20602;-88
2021/08/17 20:42:34;;;;;;;0.90;0.73;;;24.40;99.90;;;;;;20480310;28;20271;-84
2021/08/17 20:52:38;;;;;;;1.30;0.40;;;24.30;99.90;;;;;;20478677;28;20188;-81
2021/08/17 21:02:43;;;;;;;1.20;1.10;;;24.10;99.90;;;;;;20502256;28;20219;-85
2021/08/17 21:12:47;;;;;;;0.73;0.53;;;23.90;99.90;;;;;;20518494;28;20208;-86
2021/08/17 21:22:53;;;;;;;9.43;1.17;;;23.70;99.90;;;;;;20517470;28;20203;-83
2021/08/17 21:32:57;;;;;;;2.70;0.93;;;23.70;99.90;;;;;;20519539;28;20199;-81
2021/08/17 21:43:03;;;;;;;2.00;0.90;;;23.80;99.90;;;;;;20504693;28;20274;-82
2021/08/17 21:53:06;;;;;;;1.83;0.63;;;23.60;99.90;;;;;;20505777;28;21042;-82
2021/08/17 22:03:15;;;;;;;5.22;1.60;;;23.90;99.90;;;;;;20501040;28;20285;-82
2021/08/17 22:13:19;;;;;;;4.43;1.43;;;24.00;99.90;;;;;;20504046;28;20221;-81
2021/08/17 22:23:24;;;;;;;1.53;1.27;;;24.00;99.90;;;;;;20471409;28;20207;-82
2021/08/17 22:33:29;;;;;;;1.27;1.05;;;23.90;99.90;;;;;;20466461;28;20681;-84
2021/08/17 22:43:34;;;;;;;9.55;0.70;;;23.70;99.90;;;;;;20546936;28;20251;-85
2021/08/17 22:53:38;;;;;;;0.20;0.20;;;23.80;99.90;;;;;;20544222;28;20204;-82
2021/08/17 23:03:43;;;;;;;5.20;0.70;;;23.80;99.90;;;;;;20545446;28;20197;-81
2021/08/17 23:13:47;;;;;;;2.80;1.05;;;23.70;99.90;;;;;;20544237;28;20224;-85
2021/08/17 23:23:54;;;;;;;0.83;0.40;;;23.70;99.90;;;;;;20542682;28;20998;-80
2021/08/17 23:33:57;;;;;;;0.40;0.40;;;23.60;99.90;;;;;;20520690;28;20227;-81
2021/08/17 23:44:02;;;;;;;1.40;0.77;;;23.60;99.90;;;;;;22154670;23;20538;-83
2021/08/17 23:54:06;;;;;;;0.80;0.67;;;23.60;99.90;;;;;;20581873;28;20227;-82
